Alhambra, Illinois
Current Conditions -  °F | °C
As of 6:50 AM on Monday 22 Dec 2014 (Local Time) from KALN Reporting Station
Light Rain Light Rain  
Wind Chill: 30°   Ceiling: 1000
Heat Index: 37°   Visibility: 4mi
Dew Point: 36°   Wind: 12mph
Humidity: 93%   Direction: 100°E
Pressure: 29.8"   Gusts: NA
Location:  38.89°N, 89.73°W
Report Text: KALN 221250Z 10010KT 4SM -RA BKN010 OVC014 03/02 A2980
Loading
Personal Weather Stations






























Interactive Weather Map New forecast layout! Learn more

10-Day Weather Forecast

Advertisements
Track Severe Weather on mobile